Time;durP1;ratioP1;P1;durP2;ratioP2;P2;SDS_P1;SDS_P2;PMS_P1;PMS_P2;Temp;Humidity;BMP_temperature;BMP_pressure;BME280_temperature;BME280_humidity;BME280_pressure;Samples;Min_cycle;Max_cycle;Signal;HPM_P1;HPM_P2
2021/06/04 00:00:42;;;;;;;4.90;2.00;;;;;;;23.42;31.92;101836.31;5032508;28;20029;-76
2021/06/04 00:03:24;;;;;;;;;;;;;;;23.38;31.91;101833.47;5033130;28;20422;-75
2021/06/04 00:05:53;;;;;;;9.43;2.33;;;;;;;23.45;31.69;101830.00;5032902;28;20364;-77
2021/06/04 00:08:21;;;;;;;6.53;2.35;;;;;;;23.50;31.52;101832.44;5032470;28;20018;-75
2021/06/04 00:10:54;;;;;;;5.68;1.95;;;;;;;23.35;31.86;101842.59;5032585;28;20018;-75
2021/06/04 00:13:35;;;;;;;3.50;1.65;;;;;;;23.33;31.86;101847.72;5032630;28;20238;-75
2021/06/04 00:16:13;;;;;;;3.67;1.45;;;;;;;23.35;31.76;101839.81;5032550;28;20068;-75
2021/06/04 00:18:41;;;;;;;3.38;1.77;;;;;;;23.31;31.71;101843.72;5032314;28;20112;-76
2021/06/04 00:21:14;;;;;;;6.40;1.83;;;;;;;23.30;31.94;101842.91;5032460;28;20037;-75
2021/06/04 00:23:41;;;;;;;3.47;1.45;;;;;;;23.27;32.05;101840.84;5032480;28;20545;-75
2021/06/04 00:26:09;;;;;;;7.40;1.27;;;;;;;23.12;32.19;101850.16;5032373;28;20472;-75
2021/06/04 00:28:36;;;;;;;7.75;1.48;;;;;;;22.92;32.42;101847.44;5032285;28;20029;-74
2021/06/04 00:31:03;;;;;;;3.70;1.60;;;;;;;23.09;32.23;101850.91;5032271;28;20045;-74
2021/06/04 00:33:30;;;;;;;6.28;1.80;;;;;;;23.12;32.22;101852.94;5017842;28;20026;-74
2021/06/04 00:35:56;;;;;;;5.80;1.33;;;;;;;22.97;32.40;101849.94;5036266;28;20029;-75
2021/06/04 00:38:21;;;;;;;3.47;1.38;;;;;;;23.06;32.35;101846.09;5036083;28;20028;-75
2021/06/04 00:40:51;;;;;;;5.00;1.40;;;;;;;22.96;32.53;101856.66;5035962;28;20029;-75
2021/06/04 00:43:17;;;;;;;5.57;1.42;;;;;;;22.99;32.20;101857.91;5036216;28;20021;-76
2021/06/04 00:45:47;;;;;;;6.47;2.03;;;;;;;22.96;32.58;101859.44;5036104;28;20096;-75
2021/06/04 00:48:13;;;;;;;6.03;1.45;;;;;;;23.05;32.03;101856.44;5036119;28;20025;-75
2021/06/04 00:50:49;;;;;;;3.35;1.50;;;;;;;23.02;32.51;101854.38;5036159;28;20030;-75
2021/06/04 00:53:16;;;;;;;9.52;2.22;;;;;;;22.93;32.45;101851.84;5035867;28;20028;-77
2021/06/04 00:55:42;;;;;;;4.10;1.55;;;;;;;23.02;32.39;101862.75;5034784;28;20052;-74
2021/06/04 00:58:11;;;;;;;4.05;1.67;;;;;;;23.03;31.98;101855.97;5035734;28;20018;-75
2021/06/04 01:00:41;;;;;;;6.28;1.98;;;;;;;22.91;32.66;101856.97;5035799;28;20049;-76
2021/06/04 01:03:08;;;;;;;4.60;1.52;;;;;;;22.96;32.29;101855.84;5036065;28;20395;-76
2021/06/04 01:05:38;;;;;;;4.32;2.47;;;;;;;22.99;32.26;101855.13;5035616;28;20079;-75
2021/06/04 01:08:03;;;;;;;;;;;;;;;22.94;32.43;101855.44;5036234;28;20025;-75
2021/06/04 01:11:04;;;;;;;5.55;1.85;;;;;;;23.03;32.14;101852.38;5035739;28;20310;-75
2021/06/04 01:14:02;;;;;;;10.30;2.53;;;;;;;23.01;32.39;101852.78;4955495;29;20039;-75
2021/06/04 01:16:37;;;;;;;8.05;1.80;;;;;;;22.99;32.26;101855.13;5035284;28;20033;-74
2021/06/04 01:19:21;;;;;;;4.78;1.77;;;;;;;23.03;32.10;101858.78;5035374;28;20041;-75
2021/06/04 01:21:51;;;;;;;4.60;1.40;;;;;;;23.05;32.24;101863.97;5035546;28;20065;-75
2021/06/04 01:24:35;;;;;;;;;;;;;;;22.97;32.46;101866.66;5035814;28;20036;-74
2021/06/04 01:27:27;;;;;;;8.93;1.80;;;;;;;23.06;32.10;101869.19;5035324;28;20003;-75
2021/06/04 01:30:08;;;;;;;6.13;1.45;;;;;;;23.03;32.12;101869.13;5035549;28;20037;-75
2021/06/04 01:32:37;;;;;;;7.07;2.33;;;;;;;23.03;32.08;101866.31;5035384;28;20032;-75
2021/06/04 01:35:12;;;;;;;4.25;1.30;;;;;;;22.88;32.34;101863.28;5035517;28;20075;-74
2021/06/04 01:37:39;;;;;;;2.85;1.33;;;;;;;23.02;31.97;101868.31;5035237;28;20033;-76
2021/06/04 01:40:13;;;;;;;6.57;1.88;;;;;;;22.81;32.35;101877.03;5035119;28;20044;-75
2021/06/04 01:42:43;;;;;;;5.30;1.80;;;;;;;22.84;32.47;101861.59;5035000;28;20080;-75
2021/06/04 01:45:15;;;;;;;5.15;1.40;;;;;;;22.89;32.28;101861.28;5035145;28;20104;-75
2021/06/04 01:47:44;;;;;;;6.88;1.80;;;;;;;22.86;32.44;101862.84;5035114;28;20026;-74
2021/06/04 01:50:19;;;;;;;5.03;1.98;;;;;;;22.71;32.53;101870.09;5034911;28;20028;-74
2021/06/04 01:52:45;;;;;;;6.15;2.17;;;;;;;22.70;32.58;101874.06;5034877;28;20076;-75
2021/06/04 01:55:20;;;;;;;7.63;2.00;;;;;;;22.64;32.73;101878.31;5034822;28;20487;-75
2021/06/04 01:57:51;;;;;;;7.82;2.40;;;;;;;22.76;32.66;101877.38;5035031;28;20420;-74
2021/06/04 02:00:26;;;;;;;3.53;1.85;;;;;;;22.71;32.66;101881.25;5016942;28;20025;-76
2021/06/04 02:02:52;;;;;;;5.60;2.05;;;;;;;22.73;32.47;101872.50;5034805;28;20030;-75
2021/06/04 02:05:21;;;;;;;5.57;1.73;;;;;;;22.66;32.65;101867.59;5034661;28;20029;-75
2021/06/04 02:07:47;;;;;;;8.02;2.15;;;;;;;22.67;32.58;101877.59;5034824;28;20075;-76
2021/06/04 02:10:19;;;;;;;5.32;1.80;;;;;;;22.68;32.55;101875.63;5034664;28;20123;-75
2021/06/04 02:12:49;;;;;;;4.80;1.50;;;;;;;22.58;32.94;101870.63;5034449;28;20052;-76
2021/06/04 02:15:24;;;;;;;8.07;2.85;;;;;;;22.59;32.73;101873.03;5034652;28;20060;-76
2021/06/04 02:18:08;;;;;;;7.78;2.20;;;;;;;22.69;32.77;101880.00;5034520;28;20507;-75
2021/06/04 02:20:51;;;;;;;6.57;2.78;;;;;;;22.67;32.99;101871.19;5016433;28;20091;-75
2021/06/04 02:23:25;;;;;;;5.13;1.77;;;;;;;22.70;32.90;101871.28;5016896;28;20029;-75
2021/06/04 02:26:27;;;;;;;5.63;1.80;;;;;;;22.73;32.93;101872.50;5016600;28;20085;-75
2021/06/04 02:29:37;;;;;;;7.18;1.88;;;;;;;22.69;33.02;101875.25;5020327;28;20051;-74
2021/06/04 02:32:07;;;;;;;;;;;;;;;22.69;33.11;101878.03;5016803;28;20037;-75
2021/06/04 02:34:43;;;;;;;4.63;1.65;;;;;;;22.82;33.00;101877.84;5016377;28;19966;-75
2021/06/04 02:37:11;;;;;;;5.93;2.00;;;;;;;22.80;32.78;101878.22;5034084;28;20105;-74
2021/06/04 02:39:51;;;;;;;4.13;1.55;;;;;;;22.69;33.19;101880.00;5032762;28;20040;-76
2021/06/04 02:42:21;;;;;;;8.55;2.60;;;;;;;22.68;33.26;101878.41;5033902;28;20527;-75
2021/06/04 02:44:51;;;;;;;8.52;2.15;;;;;;;22.71;32.93;101874.88;5016191;28;20476;-74
2021/06/04 02:47:40;;;;;;;5.80;2.50;;;;;;;22.60;33.35;101885.81;5034052;28;20032;-75
2021/06/04 02:50:33;;;;;;;4.47;1.85;;;;;;;22.77;33.24;101883.75;5033981;28;20399;-75
2021/06/04 02:53:22;;;;;;;6.65;1.60;;;;;;;22.78;33.27;101885.34;5033646;28;20059;-76
2021/06/04 02:56:07;;;;;;;8.40;1.88;;;;;;;22.85;33.15;101885.50;5033203;28;20488;-76
2021/06/04 02:58:33;;;;;;;6.82;2.10;;;;;;;22.91;32.98;101868.13;5033864;28;20522;-75
2021/06/04 03:00:59;;;;;;;4.70;1.58;;;;;;;22.96;33.10;101886.50;5033598;28;20475;-76
2021/06/04 03:03:25;;;;;;;5.00;2.05;;;;;;;22.94;32.97;101895.25;5033858;28;20146;-75
2021/06/04 03:05:51;;;;;;;4.18;1.70;;;;;;;23.03;32.90;101885.84;5033567;28;20533;-74
2021/06/04 03:08:19;;;;;;;6.45;1.80;;;;;;;22.91;33.25;101882.06;5033676;28;20669;-74
2021/06/04 03:10:48;;;;;;;3.92;1.63;;;;;;;23.04;32.98;101877.09;5033569;28;20049;-75
2021/06/04 03:13:28;;;;;;;5.68;1.80;;;;;;;23.12;32.95;101878.84;5033466;28;20024;-75
2021/06/04 03:16:00;;;;;;;4.25;1.75;;;;;;;23.13;33.05;101880.47;5033636;28;20044;-76
2021/06/04 03:18:37;;;;;;;5.60;1.95;;;;;;;23.22;32.81;101883.00;5033416;28;20052;-75
2021/06/04 03:21:08;;;;;;;10.75;2.95;;;;;;;23.28;32.78;101878.75;5033334;28;20395;-74
2021/06/04 03:23:37;;;;;;;4.30;1.88;;;;;;;23.28;32.92;101878.75;5033229;28;20380;-74
2021/06/04 03:26:07;;;;;;;5.68;1.73;;;;;;;23.24;32.77;101878.66;5033410;28;20032;-76
2021/06/04 03:28:34;;;;;;;8.10;2.17;;;;;;;23.15;32.92;101880.91;5033146;28;20391;-76
2021/06/04 03:31:00;;;;;;;6.40;1.83;;;;;;;23.26;33.02;101873.50;5015526;28;20029;-74
2021/06/04 03:33:31;;;;;;;3.47;1.48;;;;;;;23.24;32.97;101873.09;5031856;28;20480;-74
2021/06/04 03:35:57;;;;;;;6.25;1.63;;;;;;;23.20;32.89;101882.56;5033077;28;20075;-74
2021/06/04 03:38:23;;;;;;;5.03;1.60;;;;;;;23.18;33.08;101877.34;5033102;28;20495;-74
2021/06/04 03:40:49;;;;;;;5.70;1.67;;;;;;;23.32;32.68;101887.16;5015378;28;20395;-75
2021/06/04 03:43:17;;;;;;;5.53;1.80;;;;;;;23.26;33.11;101890.25;5033058;28;20029;-75
2021/06/04 03:45:45;;;;;;;6.80;2.50;;;;;;;23.36;33.01;101888.03;5032923;28;20447;-75
2021/06/04 03:48:17;;;;;;;8.13;2.60;;;;;;;23.20;32.87;101883.38;5033060;28;20029;-74
2021/06/04 03:50:43;;;;;;;7.35;2.28;;;;;;;23.24;33.10;101881.44;5032871;28;20109;-75
2021/06/04 03:53:09;;;;;;;6.07;1.40;;;;;;;23.40;32.44;101883.31;5015050;28;20381;-75
2021/06/04 03:55:37;;;;;;;7.30;1.98;;;;;;;23.44;32.52;101879.41;5014934;28;20468;-75
2021/06/04 03:58:04;;;;;;;6.10;1.90;;;;;;;23.42;32.72;101886.50;5032770;28;20048;-74
2021/06/04 04:00:39;;;;;;;6.38;1.83;;;;;;;23.36;32.68;101888.84;5032637;28;20124;-75
2021/06/04 04:03:06;;;;;;;9.77;2.78;;;;;;;23.31;32.63;101885.53;5032707;28;20025;-76
2021/06/04 04:05:33;;;;;;;5.00;2.03;;;;;;;23.40;32.46;101886.09;5032457;28;20025;-75
2021/06/04 04:08:00;;;;;;;6.45;1.88;;;;;;;23.67;31.89;101889.75;5032754;28;20384;-75
2021/06/04 04:10:26;;;;;;;4.03;1.70;;;;;;;23.79;31.76;101895.91;5032705;28;20029;-77
2021/06/04 04:12:53;;;;;;;5.53;1.40;;;;;;;23.80;31.95;101886.38;5032543;28;20041;-75
2021/06/04 04:15:21;;;;;;;5.07;1.65;;;;;;;23.70;31.93;101884.22;5031533;28;20454;-76
2021/06/04 04:17:53;;;;;;;6.00;2.20;;;;;;;23.79;31.92;101881.97;5032512;28;20021;-76
2021/06/04 04:20:26;;;;;;;10.00;2.50;;;;;;;23.70;32.11;101872.25;5032206;28;20065;-75
2021/06/04 04:22:53;;;;;;;7.35;2.45;;;;;;;23.66;32.19;101886.16;5014865;28;20033;-75
2021/06/04 04:25:25;;;;;;;14.00;2.45;;;;;;;23.66;31.83;101880.59;5032296;28;20096;-76
2021/06/04 04:27:51;;;;;;;4.93;1.67;;;;;;;23.72;31.80;101869.88;5030951;28;20021;-75
2021/06/04 04:30:17;;;;;;;5.82;1.83;;;;;;;23.68;31.74;101892.16;5032247;28;20021;-74
2021/06/04 04:32:44;;;;;;;5.03;1.70;;;;;;;23.52;31.94;101892.28;5032353;28;20083;-75
2021/06/04 04:35:15;;;;;;;9.40;2.30;;;;;;;23.35;32.32;101891.97;5030960;28;20040;-74
2021/06/04 04:37:41;;;;;;;12.07;2.13;;;;;;;23.47;32.29;101894.56;5014593;28;20017;-74
2021/06/04 04:40:08;;;;;;;5.13;2.33;;;;;;;23.47;31.74;101905.75;5014464;28;20032;-75
2021/06/04 04:42:33;;;;;;;4.50;1.48;;;;;;;23.51;31.94;101903.81;5014454;28;20030;-75
2021/06/04 04:44:59;;;;;;;8.45;2.40;;;;;;;23.33;32.25;101897.94;5014473;28;20040;-74
2021/06/04 04:47:26;;;;;;;12.65;2.58;;;;;;;23.21;32.04;101903.72;5032071;28;20040;-75
2021/06/04 04:49:52;;;;;;;4.53;1.60;;;;;;;23.37;32.00;101906.38;5032277;28;20498;-75
2021/06/04 04:52:19;;;;;;;6.70;1.83;;;;;;;23.44;31.82;101901.72;5014708;28;20403;-74
2021/06/04 04:54:51;;;;;;;7.40;1.70;;;;;;;23.39;31.65;101907.59;5032228;28;20037;-75
2021/06/04 04:57:18;;;;;;;4.25;2.08;;;;;;;23.39;31.90;101909.59;5032199;28;20034;-75
2021/06/04 04:59:45;;;;;;;5.38;2.05;;;;;;;23.45;31.78;101908.91;5014431;28;20052;-75
2021/06/04 05:02:11;;;;;;;7.95;2.15;;;;;;;23.40;31.83;101919.56;5031791;28;20120;-74
2021/06/04 05:04:37;;;;;;;5.13;2.17;;;;;;;23.38;31.83;101914.34;5032295;28;20676;-75
2021/06/04 05:07:03;;;;;;;10.13;2.30;;;;;;;23.43;31.70;101921.63;5032199;28;20492;-75
2021/06/04 05:09:29;;;;;;;6.60;2.20;;;;;;;23.49;31.55;101920.09;5014397;28;20032;-76
2021/06/04 05:11:55;;;;;;;9.00;2.35;;;;;;;23.51;31.63;101918.56;5032116;28;20025;-75
2021/06/04 05:14:21;;;;;;;7.50;2.13;;;;;;;23.54;31.71;101920.59;5032005;28;20032;-75
2021/06/04 05:16:46;;;;;;;8.27;1.55;;;;;;;23.52;31.77;101920.19;5014600;28;20029;-77
2021/06/04 05:19:13;;;;;;;21.98;4.70;;;;;;;23.33;31.92;101925.00;5034279;28;20045;-75
2021/06/04 05:21:38;;;;;;;10.88;1.90;;;;;;;23.46;32.01;101921.66;5035472;28;20029;-75
2021/06/04 05:24:06;;;;;;;4.57;1.80;;;;;;;23.64;31.37;101919.19;5035591;28;20022;-74
2021/06/04 05:26:32;;;;;;;11.23;2.53;;;;;;;23.65;31.76;101918.00;5035795;28;20024;-76
2021/06/04 05:28:58;;;;;;;7.45;2.42;;;;;;;23.69;31.94;101920.88;5035398;28;20468;-75
2021/06/04 05:31:24;;;;;;;9.23;1.70;;;;;;;23.73;31.72;101925.34;5017596;28;20022;-75
2021/06/04 05:33:52;;;;;;;6.55;1.90;;;;;;;23.81;31.74;101926.25;5035377;28;20029;-76
2021/06/04 05:36:29;;;;;;;5.22;1.90;;;;;;;23.96;31.37;101933.66;5035175;28;20026;-76
2021/06/04 05:38:55;;;;;;;5.65;2.35;;;;;;;24.11;31.33;101925.47;5035320;28;20022;-75
2021/06/04 05:41:21;;;;;;;6.60;2.13;;;;;;;24.11;31.78;101926.31;5035149;28;20159;-75
2021/06/04 05:43:48;;;;;;;5.35;2.03;;;;;;;23.97;31.99;101926.09;5035187;28;20022;-75
2021/06/04 05:46:18;;;;;;;3.97;1.83;;;;;;;24.21;31.61;101934.03;5035362;28;20026;-75
2021/06/04 05:48:44;;;;;;;6.03;2.10;;;;;;;24.33;31.53;101930.19;5035129;28;20029;-74
2021/06/04 05:51:21;;;;;;;6.10;2.10;;;;;;;24.32;31.57;101934.16;5034865;28;20025;-74
2021/06/04 05:53:47;;;;;;;6.03;1.60;;;;;;;24.40;31.79;101935.09;5017319;28;20064;-76
2021/06/04 05:56:15;;;;;;;6.80;2.05;;;;;;;24.37;31.75;101945.03;5035010;28;20033;-75
2021/06/04 05:58:42;;;;;;;6.78;2.13;;;;;;;24.48;31.95;101937.59;5034732;28;20033;-75
2021/06/04 06:01:10;;;;;;;11.23;1.80;;;;;;;24.65;32.02;101946.59;5033414;28;20037;-76
2021/06/04 06:03:37;;;;;;;7.68;2.40;;;;;;;24.71;31.93;101950.66;5035090;28;20065;-77
2021/06/04 06:06:04;;;;;;;6.88;1.73;;;;;;;24.60;32.02;101942.13;5034685;28;20097;-74
2021/06/04 06:08:30;;;;;;;4.70;1.35;;;;;;;24.73;31.99;101949.09;5034532;28;20033;-73
2021/06/04 06:10:55;;;;;;;7.55;1.90;;;;;;;24.88;31.61;101945.28;5034459;28;20487;-73
2021/06/04 06:13:22;;;;;;;5.97;1.75;;;;;;;25.04;31.56;101947.06;5034439;28;20480;-73
2021/06/04 06:15:47;;;;;;;5.03;1.52;;;;;;;25.00;31.98;101957.38;5033065;28;20029;-73
2021/06/04 06:18:13;;;;;;;7.18;2.28;;;;;;;25.03;31.60;101953.84;5034312;28;20087;-74
2021/06/04 06:20:43;;;;;;;12.20;2.08;;;;;;;25.09;31.78;101949.50;5034063;28;20057;-74
2021/06/04 06:23:10;;;;;;;6.20;1.75;;;;;;;25.20;31.58;101953.22;5034299;28;20026;-75
2021/06/04 06:25:42;;;;;;;8.32;2.72;;;;;;;25.15;31.47;101953.56;5034193;28;20037;-73
2021/06/04 06:28:10;;;;;;;6.47;2.63;;;;;;;25.18;31.32;101961.22;5034490;28;20091;-74
2021/06/04 06:30:36;;;;;;;7.80;2.28;;;;;;;25.35;31.01;101962.56;5033031;28;20033;-76
2021/06/04 06:33:02;;;;;;;8.35;1.75;;;;;;;25.25;31.12;101964.09;5016315;28;20503;-75
2021/06/04 06:35:36;;;;;;;6.78;1.67;;;;;;;25.15;31.50;101970.34;5032828;28;20124;-75
2021/06/04 06:38:03;;;;;;;6.70;3.50;;;;;;;25.36;31.22;101964.97;5037751;28;20021;-75
2021/06/04 06:40:28;;;;;;;9.50;1.92;;;;;;;25.36;31.37;101970.56;5034160;28;20029;-76
2021/06/04 06:42:55;;;;;;;8.10;1.95;;;;;;;25.48;30.92;101966.69;5054119;28;20025;-76
2021/06/04 06:45:24;;;;;;;11.57;2.60;;;;;;;25.34;31.02;101963.75;5053840;28;20145;-75
2021/06/04 06:47:51;;;;;;;10.35;2.22;;;;;;;25.51;31.04;101963.13;5049795;28;20464;-76
2021/06/04 06:50:17;;;;;;;5.47;1.55;;;;;;;25.65;30.46;101971.66;5036499;28;20065;-76
2021/06/04 06:52:43;;;;;;;6.28;2.35;;;;;;;25.67;30.68;101968.44;5037363;28;20064;-75
2021/06/04 06:55:09;;;;;;;7.75;1.70;;;;;;;25.38;30.93;101982.19;5037558;28;20029;-77
2021/06/04 06:57:35;;;;;;;3.05;1.25;;;;;;;25.66;30.37;101981.66;5035432;28;20025;-75
2021/06/04 07:00:01;;;;;;;13.48;2.00;;;;;;;25.69;30.71;101982.84;5034614;28;20028;-75
2021/06/04 07:02:26;;;;;;;5.68;1.50;;;;;;;25.69;30.64;101991.25;5020448;28;20391;-76
2021/06/04 07:04:52;;;;;;;6.57;1.50;;;;;;;25.62;30.43;101991.22;5033360;28;20541;-79
2021/06/04 07:07:18;;;;;;;9.77;1.52;;;;;;;25.56;30.42;101990.75;5041112;28;20056;-77
2021/06/04 07:09:45;;;;;;;6.68;2.00;;;;;;;25.86;29.85;101999.06;5035115;28;20043;-88
2021/06/04 07:12:11;;;;;;;8.20;2.15;;;;;;;25.90;30.25;102011.06;5043747;28;20075;-77
2021/06/04 07:14:39;;;;;;;7.65;2.00;;;;;;;25.81;29.98;101996.59;5043679;28;20033;-77
2021/06/04 07:17:05;;;;;;;6.75;1.83;;;;;;;25.85;29.82;102007.84;5038525;28;20039;-74
2021/06/04 07:19:33;;;;;;;4.60;1.88;;;;;;;26.02;30.11;102004.38;5034253;28;20161;-76
2021/06/04 07:22:01;;;;;;;25.50;4.15;;;;;;;26.10;30.09;102008.03;5016844;28;20028;-74
2021/06/04 07:24:26;;;;;;;9.30;2.42;;;;;;;26.28;29.63;102006.13;5016622;28;20479;-74
2021/06/04 07:26:54;;;;;;;4.10;1.27;;;;;;;26.34;29.59;102004.56;5035731;28;20027;-76
2021/06/04 07:29:24;;;;;;;9.05;1.85;;;;;;;26.17;30.18;102010.88;5035935;28;20029;-76
2021/06/04 07:31:50;;;;;;;9.77;2.00;;;;;;;26.42;29.70;102011.06;5039613;28;20034;-76
2021/06/04 07:34:16;;;;;;;6.68;2.03;;;;;;;26.31;29.89;102010.19;5036092;28;20733;-73
2021/06/04 07:36:48;;;;;;;8.27;2.25;;;;;;;26.40;29.79;102008.66;5035149;28;20047;-76
2021/06/04 07:39:20;;;;;;;12.35;1.98;;;;;;;26.63;29.26;102021.59;5034326;28;20025;-76
2021/06/04 07:41:46;;;;;;;4.03;1.10;;;;;;;26.52;29.46;102025.13;5034627;28;20037;-75
2021/06/04 07:44:14;;;;;;;4.43;1.33;;;;;;;26.81;29.01;102016.84;5032966;28;20056;-75
2021/06/04 07:46:41;;;;;;;3.22;1.30;;;;;;;26.73;29.03;102034.84;5016108;28;20059;-77
2021/06/04 07:49:07;;;;;;;8.02;2.38;;;;;;;26.82;29.05;102026.88;5034210;28;20021;-75
2021/06/04 07:51:36;;;;;;;4.88;1.35;;;;;;;26.83;28.75;102029.31;5032521;28;20033;-75
2021/06/04 07:54:03;;;;;;;6.05;1.65;;;;;;;26.83;28.53;102034.91;5033603;28;20478;-76
2021/06/04 07:56:28;;;;;;;62.35;9.50;;;;;;;26.79;28.75;102027.66;5046392;28;20029;-75
2021/06/04 07:58:54;;;;;;;14.88;2.30;;;;;;;27.05;27.96;102021.81;5022881;28;20225;-75
2021/06/04 08:01:21;;;;;;;8.32;1.35;;;;;;;27.32;28.08;102015.88;5015680;28;20040;-75
2021/06/04 08:03:47;;;;;;;5.95;1.50;;;;;;;27.41;28.11;102021.09;5033539;28;20071;-74
2021/06/04 08:06:16;;;;;;;7.07;1.50;;;;;;;27.63;27.62;102025.53;5035249;28;20407;-76
2021/06/04 08:08:42;;;;;;;7.93;1.70;;;;;;;27.58;27.76;102015.53;5051254;28;20052;-75
2021/06/04 08:11:11;;;;;;;11.02;1.83;;;;;;;27.59;27.91;102014.31;5048506;28;20112;-77
2021/06/04 08:13:37;;;;;;;2.83;0.90;;;;;;;27.78;27.63;102009.53;5051260;28;20032;-77
2021/06/04 08:16:07;;;;;;;5.70;1.50;;;;;;;27.78;27.43;102010.31;5051688;28;20025;-74
2021/06/04 08:18:35;;;;;;;3.15;1.48;;;;;;;28.06;27.09;102011.53;5050920;28;20044;-74
2021/06/04 08:21:05;;;;;;;5.25;1.10;;;;;;;28.02;26.61;102014.31;5049056;28;20028;-75
2021/06/04 08:23:34;;;;;;;15.65;3.15;;;;;;;28.16;26.34;102008.69;5051152;28;20025;-76
2021/06/04 08:26:04;;;;;;;5.38;1.52;;;;;;;28.30;25.97;102012.72;5047252;28;20025;-74
2021/06/04 08:28:29;;;;;;;6.18;1.40;;;;;;;28.40;25.66;102011.88;5051207;28;20032;-75
2021/06/04 08:30:56;;;;;;;9.38;2.47;;;;;;;28.47;25.33;102007.03;5051046;28;20025;-75
2021/06/04 08:33:27;;;;;;;6.88;1.40;;;;;;;28.55;25.41;102009.84;5033531;28;20021;-75
2021/06/04 08:35:54;;;;;;;3.70;1.15;;;;;;;28.73;25.30;102019.84;5033370;28;20037;-75
2021/06/04 08:38:19;;;;;;;10.80;1.60;;;;;;;28.71;25.12;102022.22;5048965;28;20024;-76
2021/06/04 08:40:46;;;;;;;5.13;1.50;;;;;;;28.98;25.01;102013.31;5051000;28;20028;-78
2021/06/04 08:43:30;;;;;;;4.22;1.40;;;;;;;29.14;24.67;102016.44;5051291;28;20021;-77
2021/06/04 08:46:17;;;;;;;7.75;2.50;;;;;;;28.87;24.17;102023.78;5033712;28;20021;-79
2021/06/04 08:49:05;;;;;;;2.97;1.10;;;;;;;28.76;23.72;102035.06;5042116;28;20044;-77
2021/06/04 08:51:40;;;;;;;3.72;1.33;;;;;;;29.19;23.91;102024.47;5032111;28;20112;-79
2021/06/04 08:54:18;;;;;;;8.90;1.40;;;;;;;29.35;23.28;102029.59;5035582;28;20016;-84
2021/06/04 08:56:58;;;;;;;11.63;1.30;;;;;;;29.28;22.84;102036.06;5052546;28;20382;-81
2021/06/04 08:59:25;;;;;;;5.85;1.10;;;;;;;29.51;22.73;102032.72;5054786;28;20021;-81
2021/06/04 09:02:19;;;;;;;8.80;1.52;;;;;;;29.50;22.27;102044.41;5055028;28;20398;-83
2021/06/04 09:04:50;;;;;;;8.43;1.50;;;;;;;29.26;22.56;102041.31;5054805;28;20028;-79
2021/06/04 09:07:18;;;;;;;2.17;1.10;;;;;;;29.66;22.17;102041.09;5052292;28;20135;-83
2021/06/04 09:09:53;;;;;;;9.85;1.05;;;;;;;29.65;22.59;102045.91;5049295;28;20068;-82
2021/06/04 09:12:20;;;;;;;3.53;1.00;;;;;;;30.13;22.46;102041.53;5035539;28;20036;-81
2021/06/04 09:14:47;;;;;;;9.63;2.22;;;;;;;30.03;22.93;102048.84;5054326;28;20028;-83
2021/06/04 09:17:22;;;;;;;5.85;1.58;;;;;;;30.13;22.47;102045.13;5054452;28;20418;-81
2021/06/04 09:20:01;;;;;;;2.28;0.80;;;;;;;30.43;22.37;102046.47;5048976;28;20044;-83
2021/06/04 09:22:34;;;;;;;5.75;1.27;;;;;;;30.26;21.86;102049.03;5034018;28;20028;-83
2021/06/04 09:25:00;;;;;;;6.68;1.25;;;;;;;30.54;21.96;102050.78;5053127;28;20033;-82
2021/06/04 09:27:28;;;;;;;5.18;1.02;;;;;;;30.45;22.27;102044.81;5052645;28;20017;-81
2021/06/04 09:30:18;;;;;;;4.10;1.63;;;;;;;30.54;21.69;102049.97;5054181;28;20079;-81
2021/06/04 09:33:05;;;;;;;;;;;;;;;30.72;21.93;102039.31;5054329;28;20380;-81
2021/06/04 09:35:31;;;;;;;5.95;0.93;;;;;;;30.92;21.70;102045.91;5036102;28;19939;-78
2021/06/04 09:38:27;;;;;;;3.15;0.88;;;;;;;30.87;20.31;102051.22;5049619;28;20437;-77
2021/06/04 09:40:55;;;;;;;3.45;0.95;;;;;;;31.04;20.49;102050.19;5052118;28;20485;-81
2021/06/04 09:43:30;;;;;;;3.45;1.30;;;;;;;31.02;19.74;102047.00;5036173;28;20163;-81
2021/06/04 09:46:00;;;;;;;8.00;2.15;;;;;;;31.03;20.26;102050.63;5034066;28;20617;-76
2021/06/04 09:48:34;;;;;;;5.32;1.10;;;;;;;30.81;20.14;102056.53;5054082;28;20029;-83
2021/06/04 09:51:22;;;;;;;6.80;2.30;;;;;;;30.94;19.91;102046.28;5053809;28;20021;-80
2021/06/04 09:54:15;;;;;;;7.35;1.42;;;;;;;31.47;20.00;102047.59;5051738;28;20028;-76
2021/06/04 09:56:42;;;;;;;5.30;1.38;;;;;;;31.61;19.85;102038.09;5045672;28;20068;-76
2021/06/04 09:59:13;;;;;;;2.30;0.73;;;;;;;30.93;20.10;102039.06;5053523;28;20430;-81
2021/06/04 10:01:54;;;;;;;7.28;1.80;;;;;;;31.45;19.75;102041.59;5050998;28;20036;-82
2021/06/04 10:04:32;;;;;;;3.92;0.88;;;;;;;31.55;19.10;102033.38;5033254;28;20037;-81
2021/06/04 10:07:30;;;;;;;10.88;1.48;;;;;;;31.48;18.20;102035.06;5037646;28;20380;-80
2021/06/04 10:09:57;;;;;;;1.55;0.80;;;;;;;31.62;18.72;102033.25;4990750;28;20396;-82
2021/06/04 10:12:36;;;;;;;4.75;1.20;;;;;;;31.41;18.75;102028.72;5053905;28;20071;-82
2021/06/04 10:15:34;;;;;;;4.03;1.80;;;;;;;31.84;18.78;102028.88;5053944;28;20032;-82
2021/06/04 10:18:20;;;;;;;4.38;1.20;;;;;;;31.87;18.97;102028.00;5020367;28;20040;-81
2021/06/04 10:20:48;;;;;;;7.97;1.65;;;;;;;31.88;18.81;102031.63;5049293;28;20044;-74
2021/06/04 10:23:18;;;;;;;2.42;0.80;;;;;;;32.01;18.17;102018.50;5050735;28;20427;-75
2021/06/04 10:25:49;;;;;;;4.82;1.38;;;;;;;32.11;18.45;102025.19;5030100;28;20399;-81
2021/06/04 10:28:43;;;;;;;2.50;0.80;;;;;;;31.60;19.75;102025.22;5034461;28;20486;-82
2021/06/04 10:31:15;;;;;;;2.90;0.85;;;;;;;31.94;18.96;102022.25;5013813;28;20084;-81
2021/06/04 10:33:58;;;;;;;3.25;1.05;;;;;;;31.71;18.14;102027.84;5034115;28;20025;-81
2021/06/04 10:36:28;;;;;;;5.57;1.33;;;;;;;32.07;18.44;102024.47;5016364;28;20530;-82
2021/06/04 10:39:00;;;;;;;6.50;1.27;;;;;;;31.97;18.66;102029.06;5033366;28;20052;-82
2021/06/04 10:42:06;;;;;;;4.45;1.00;;;;;;;32.11;18.48;102025.19;5032610;28;20068;-80
2021/06/04 10:44:44;;;;;;;8.02;1.83;;;;;;;32.28;19.06;102021.25;5038812;28;20036;-83
2021/06/04 10:47:22;;;;;;;7.75;2.42;;;;;;;32.28;18.54;102024.06;5054483;28;20536;-87
2021/06/04 10:49:53;;;;;;;3.08;1.00;;;;;;;32.68;18.42;102024.91;5037523;28;20054;-89
2021/06/04 10:52:56;;;;;;;2.15;0.80;;;;;;;32.63;17.77;102011.25;5053950;28;20454;-91
2021/06/04 10:55:48;;;;;;;2.40;1.00;;;;;;;32.57;18.23;102019.50;5043967;28;20083;-76
2021/06/04 10:58:48;;;;;;;3.58;1.00;;;;;;;32.80;18.15;102015.78;5050587;28;20013;-75
2021/06/04 11:01:19;;;;;;;8.88;1.65;;;;;;;32.91;18.49;102021.22;5033855;28;20033;-75
2021/06/04 11:04:06;;;;;;;11.07;2.05;;;;;;;33.07;17.64;102018.44;5033656;28;20045;-76
2021/06/04 11:06:34;;;;;;;20.08;1.73;;;;;;;33.33;17.90;102032.84;5034023;28;20525;-83
2021/06/04 11:09:15;;;;;;;10.35;1.70;;;;;;;33.03;17.94;102016.94;5016514;28;20473;-82
2021/06/04 11:11:59;;;;;;;6.97;1.35;;;;;;;33.37;17.94;102020.19;5016219;28;20099;-82
2021/06/04 11:14:43;;;;;;;5.90;1.30;;;;;;;33.36;17.80;102006.47;5042585;28;20127;-87
2021/06/04 11:17:41;;;;;;;11.57;2.30;;;;;;;33.09;18.22;102021.63;5053152;28;20111;-82
2021/06/04 11:20:09;;;;;;;3.35;1.42;;;;;;;33.02;17.71;102016.13;5038488;28;20048;-83
2021/06/04 11:23:05;;;;;;;3.88;1.20;;;;;;;33.43;17.95;102023.31;5034988;28;20027;-83
2021/06/04 11:25:38;;;;;;;7.82;1.58;;;;;;;33.55;17.72;102042.44;5027712;28;20037;-81
2021/06/04 11:28:30;;;;;;;14.55;2.50;;;;;;;33.66;18.71;102019.53;5044029;28;20480;-83
2021/06/04 11:30:58;;;;;;;6.75;1.60;;;;;;;33.85;18.42;102026.31;5048512;28;20026;-87
2021/06/04 11:33:35;;;;;;;4.47;1.10;;;;;;;33.81;17.94;102031.28;5042263;28;20083;-85
2021/06/04 11:36:12;;;;;;;6.93;1.63;;;;;;;33.52;17.53;102036.88;5050604;28;20035;-84
2021/06/04 11:38:54;;;;;;;6.50;2.50;;;;;;;33.48;17.75;102030.47;5053517;28;20391;-90
2021/06/04 11:41:37;;;;;;;7.25;2.05;;;;;;;32.98;20.18;102038.06;5035176;28;20029;-83
2021/06/04 11:44:18;;;;;;;8.63;2.03;;;;;;;32.50;22.25;102044.28;5042479;28;20078;-82
2021/06/04 11:47:06;;;;;;;6.28;2.10;;;;;;;32.69;22.32;102040.66;5019634;28;20106;-84
2021/06/04 11:49:54;;;;;;;6.30;1.80;;;;;;;32.27;23.16;102033.78;5053021;28;20025;-82